createdAt,value
2022-07-31T00:00:47.664Z,94267.03
2022-07-31T00:03:15.767Z,94275.03
2022-07-31T00:05:43.892Z,94282.94
2022-07-31T00:08:13.258Z,94271.81
2022-07-31T00:10:41.306Z,94263.81
2022-07-31T00:13:10.460Z,94270.06
2022-07-31T00:15:38.667Z,94267.31
2022-07-31T00:18:06.770Z,94271.22
2022-07-31T00:20:35.664Z,94290.28
2022-07-31T00:23:03.671Z,94286.59
2022-07-31T00:25:33.110Z,94288.94
2022-07-31T00:28:01.224Z,94303.91
2022-07-31T00:30:29.331Z,94302.88
2022-07-31T00:32:57.283Z,94308.09
2022-07-31T00:35:25.454Z,94297.06
2022-07-31T00:38:02.120Z,94294.78
2022-07-31T00:40:48.800Z,94303.47
2022-07-31T00:43:18.418Z,94297.75
2022-07-31T00:45:46.529Z,94306.09
2022-07-31T00:48:19.250Z,94299.03
2022-07-31T00:50:49.254Z,94286.44
2022-07-31T00:53:17.343Z,94286.53
2022-07-31T00:55:51.806Z,94294.44
2022-07-31T00:58:21.856Z,94289.56
2022-07-31T01:00:50.012Z,94309.78
2022-07-31T01:03:18.771Z,94293.75
2022-07-31T01:05:46.890Z,94299.03
2022-07-31T01:08:15.204Z,94308.97
2022-07-31T01:10:57.368Z,94314.72
2022-07-31T01:13:46.596Z,94311.50
2022-07-31T01:16:15.544Z,94316.31
2022-07-31T01:18:46.257Z,94315.63
2022-07-31T01:21:21.217Z,94282.66
2022-07-31T01:24:31.885Z,94304.03
2022-07-31T01:27:05.080Z,94303.69
2022-07-31T01:29:42.099Z,94297.44
2022-07-31T01:32:14.726Z,94311.72
2022-07-31T01:34:48.124Z,94315.97
2022-07-31T01:37:22.536Z,94306.47
2022-07-31T01:39:55.842Z,94312.19
2022-07-31T01:42:27.093Z,94313.81
2022-07-31T01:45:01.574Z,94301.44
2022-07-31T01:47:32.890Z,94307.72
2022-07-31T01:50:02.504Z,94280.41
2022-07-31T01:52:33.045Z,94295.81
2022-07-31T01:55:01.982Z,94297.22
2022-07-31T01:57:32.687Z,94299.72
2022-07-31T02:00:05.043Z,94300.53
2022-07-31T02:02:33.959Z,94301.34
2022-07-31T02:05:11.248Z,94292.88
2022-07-31T02:07:41.512Z,94310.56
2022-07-31T02:10:12.025Z,94309.78
2022-07-31T02:15:18.759Z,94306.03
2022-07-31T02:17:48.753Z,94303.16
2022-07-31T02:20:17.917Z,94305.44
2022-07-31T02:22:46.012Z,94306.69
2022-07-31T02:25:14.120Z,94303.81
2022-07-31T02:27:57.815Z,94296.72
2022-07-31T02:30:38.931Z,94305.78
2022-07-31T02:33:10.052Z,94309.22
2022-07-31T02:35:44.221Z,94303.25
2022-07-31T02:38:18.069Z,94318.59
2022-07-31T02:40:52.243Z,94315.38
2022-07-31T02:43:21.664Z,94319.94
2022-07-31T02:45:51.280Z,94317.53
2022-07-31T02:48:19.601Z,94309.97
2022-07-31T02:50:47.931Z,94315.13
2022-07-31T02:53:16.464Z,94320.50
2022-07-31T02:55:45.616Z,94323.69
2022-07-31T02:58:14.345Z,94317.34
2022-07-31T03:00:42.576Z,94315.84
2022-07-31T03:03:11.991Z,94319.97
2022-07-31T03:05:40.032Z,94313.66
2022-07-31T03:08:07.985Z,94319.88
2022-07-31T03:10:36.099Z,94315.75
2022-07-31T03:13:05.239Z,94321.34
2022-07-31T03:15:34.166Z,94321.47
2022-07-31T03:18:11.145Z,94324.44
2022-07-31T03:20:42.428Z,94323.16
2022-07-31T03:23:13.114Z,94333.94
2022-07-31T03:25:42.595Z,94340.75
2022-07-31T03:28:10.939Z,94333.16
2022-07-31T03:30:39.144Z,94343.75
2022-07-31T03:33:07.133Z,94341.31
2022-07-31T03:35:39.267Z,94339.75
2022-07-31T03:38:32.884Z,94334.59
2022-07-31T03:41:00.050Z,94341.75
2022-07-31T03:43:29.911Z,94337.22
2022-07-31T03:46:13.121Z,94338.38
2022-07-31T03:48:41.645Z,94343.63
2022-07-31T03:51:10.311Z,94335.63
2022-07-31T03:53:39.982Z,94355.97
2022-07-31T03:56:08.709Z,94360.13
2022-07-31T03:58:37.999Z,94349.22
2022-07-31T04:01:10.438Z,94360.69
2022-07-31T04:03:40.638Z,94360.94
2022-07-31T04:06:09.128Z,94355.69
2022-07-31T04:08:37.100Z,94352.31
2022-07-31T04:11:06.506Z,94352.84
2022-07-31T04:13:35.824Z,94360.94
2022-07-31T04:16:03.856Z,94367.16
2022-07-31T04:18:31.851Z,94364.53
2022-07-31T04:20:59.953Z,94362.72
2022-07-31T04:23:32.646Z,94361.44
2022-07-31T04:26:01.061Z,94354.75
2022-07-31T04:28:30.540Z,94347.88
2022-07-31T04:30:59.168Z,94348.03
2022-07-31T04:33:27.371Z,94350.34
2022-07-31T04:35:55.357Z,94348.00
2022-07-31T04:38:23.556Z,94348.28
2022-07-31T04:40:51.623Z,94350.53
2022-07-31T04:43:19.623Z,94345.34
2022-07-31T04:45:48.949Z,94341.16
2022-07-31T04:48:16.942Z,94346.09
2022-07-31T04:50:44.970Z,94353.09
2022-07-31T04:53:12.923Z,94349.09
2022-07-31T04:55:40.891Z,94350.25
2022-07-31T04:58:09.001Z,94340.84
2022-07-31T05:00:37.142Z,94345.47
2022-07-31T05:03:06.525Z,94349.50
2022-07-31T05:05:34.587Z,94363.59
2022-07-31T05:08:02.573Z,94357.97
2022-07-31T05:10:47.984Z,94362.13
2022-07-31T05:13:16.133Z,94364.09
2022-07-31T05:15:44.668Z,94347.16
2022-07-31T05:18:14.021Z,94356.09
2022-07-31T05:20:42.046Z,94354.81
2022-07-31T05:23:10.095Z,94355.84
2022-07-31T05:25:38.262Z,94354.25
2022-07-31T05:28:08.874Z,94347.88
2022-07-31T05:30:37.984Z,94362.53
2022-07-31T05:33:06.958Z,94364.22
2022-07-31T05:35:36.588Z,94360.03
2022-07-31T05:38:04.611Z,94353.25
2022-07-31T05:40:39.963Z,94353.16
2022-07-31T05:43:08.014Z,94351.31
2022-07-31T05:45:36.106Z,94345.69
2022-07-31T05:48:04.312Z,94350.53
2022-07-31T05:50:34.070Z,94353.16
2022-07-31T05:53:03.587Z,94357.59
2022-07-31T05:55:31.616Z,94376.13
2022-07-31T05:57:59.741Z,94351.88
2022-07-31T06:00:28.760Z,94353.38
2022-07-31T06:02:57.535Z,94363.78
2022-07-31T06:05:25.937Z,94359.13
2022-07-31T06:07:54.436Z,94371.94
2022-07-31T06:10:24.632Z,94363.13
2022-07-31T06:12:52.876Z,94366.78
2022-07-31T06:15:21.056Z,94351.09
2022-07-31T06:17:49.160Z,94342.66
2022-07-31T06:20:17.222Z,94362.78
2022-07-31T06:22:45.471Z,94366.25
2022-07-31T06:25:14.185Z,94360.97
2022-07-31T06:27:50.900Z,94363.72
2022-07-31T06:30:27.329Z,94364.91
2022-07-31T06:32:55.403Z,94360.63
2022-07-31T06:35:23.499Z,94361.16
2022-07-31T06:37:51.502Z,94354.00
2022-07-31T06:40:19.686Z,94352.28
2022-07-31T06:42:49.305Z,94351.59
2022-07-31T06:45:35.510Z,94351.00
2022-07-31T06:48:05.286Z,94369.59
2022-07-31T06:50:33.301Z,94358.50
2022-07-31T06:53:01.277Z,94353.25
2022-07-31T06:55:29.268Z,94360.56
2022-07-31T06:57:58.674Z,94359.41
2022-07-31T07:00:26.703Z,94341.84
2022-07-31T07:02:55.218Z,94358.81
2022-07-31T07:05:23.188Z,94365.94
2022-07-31T07:07:52.252Z,94372.06
2022-07-31T07:10:20.318Z,94377.38
2022-07-31T07:12:48.377Z,94383.47
2022-07-31T07:15:17.913Z,94376.13
2022-07-31T07:17:46.052Z,94372.13
2022-07-31T07:20:14.569Z,94363.88
2022-07-31T07:22:42.662Z,94384.34
2022-07-31T07:25:12.638Z,94374.06
2022-07-31T07:27:40.712Z,94395.09
2022-07-31T07:30:09.757Z,94385.69
2022-07-31T07:32:39.254Z,94390.81
2022-07-31T07:35:09.372Z,94382.66
2022-07-31T07:37:39.093Z,94381.09
2022-07-31T07:40:10.292Z,94382.78
2022-07-31T07:42:38.281Z,94395.56
2022-07-31T07:45:08.434Z,94383.22
2022-07-31T07:47:53.693Z,94383.47
2022-07-31T07:50:27.130Z,94376.44
2022-07-31T07:52:57.829Z,94368.38
2022-07-31T07:55:26.253Z,94367.09
2022-07-31T07:57:54.608Z,94363.94
2022-07-31T08:00:25.994Z,94377.50
2022-07-31T08:03:47.274Z,94374.78
2022-07-31T08:05:43.579Z,94383.09
2022-07-31T08:08:11.675Z,94386.47
2022-07-31T08:10:41.168Z,94385.28
2022-07-31T08:13:09.280Z,94381.91
2022-07-31T08:15:37.437Z,94389.50
2022-07-31T08:18:07.284Z,94396.97
2022-07-31T08:20:35.721Z,94392.47
2022-07-31T08:23:04.023Z,94411.91
2022-07-31T08:25:32.283Z,94400.41
2022-07-31T08:28:00.380Z,94405.75
2022-07-31T08:30:30.742Z,94405.00
2022-07-31T08:32:59.243Z,94387.94
2022-07-31T08:35:30.464Z,94407.13
2022-07-31T08:38:03.085Z,94375.16
2022-07-31T08:40:32.721Z,94387.59
2022-07-31T08:43:14.659Z,94401.44
2022-07-31T08:45:52.583Z,94416.00
2022-07-31T08:48:25.330Z,94410.53
2022-07-31T08:50:55.605Z,94416.16
2022-07-31T08:53:25.008Z,94405.59
2022-07-31T08:55:55.409Z,94404.75
2022-07-31T08:58:25.362Z,94415.38
2022-07-31T09:00:53.483Z,94413.66
2022-07-31T09:03:21.660Z,94417.94
2022-07-31T09:05:49.773Z,94408.59
2022-07-31T09:08:19.230Z,94406.13
2022-07-31T09:10:49.887Z,94419.47
2022-07-31T09:13:20.417Z,94421.56
2022-07-31T09:15:48.561Z,94414.00
2022-07-31T09:18:18.694Z,94415.00
2022-07-31T09:20:57.216Z,94427.19
2022-07-31T09:23:28.279Z,94413.41
2022-07-31T09:25:57.373Z,94409.81
2022-07-31T09:28:41.424Z,94417.31
2022-07-31T09:31:10.856Z,94415.84
2022-07-31T09:33:45.189Z,94411.41
2022-07-31T09:36:14.179Z,94408.50
2022-07-31T09:38:44.985Z,94406.78
2022-07-31T09:41:56.524Z,94407.59
2022-07-31T09:44:10.231Z,94445.06
2022-07-31T09:46:41.864Z,94412.59
2022-07-31T09:49:10.178Z,94402.66
2022-07-31T09:51:41.476Z,94411.75
2022-07-31T09:54:22.394Z,94406.81
2022-07-31T09:56:50.869Z,94426.09
2022-07-31T09:59:19.082Z,94427.94
2022-07-31T10:01:48.859Z,94436.09
2022-07-31T10:04:18.173Z,94421.13
2022-07-31T10:06:48.918Z,94408.22
2022-07-31T10:09:20.287Z,94407.94
2022-07-31T10:11:50.976Z,94401.91
2022-07-31T10:14:23.760Z,94403.97
2022-07-31T10:16:55.796Z,94393.50
2022-07-31T10:19:24.820Z,94411.72
2022-07-31T10:21:57.764Z,94406.28
2022-07-31T10:24:29.863Z,94412.41
2022-07-31T10:27:01.335Z,94404.16
2022-07-31T10:29:32.199Z,94398.72
2022-07-31T10:32:01.310Z,94395.53
2022-07-31T10:34:29.969Z,94407.50
2022-07-31T10:37:11.315Z,94401.13
2022-07-31T10:39:50.859Z,94399.03
2022-07-31T10:42:30.588Z,94403.34
2022-07-31T10:45:06.594Z,94393.22
2022-07-31T10:47:34.629Z,94438.25
2022-07-31T10:50:03.003Z,94430.84
2022-07-31T10:52:32.300Z,94404.34
2022-07-31T10:55:02.050Z,94405.03
2022-07-31T10:57:33.409Z,94408.13
2022-07-31T11:00:11.914Z,94400.97
2022-07-31T11:02:40.076Z,94423.03
2022-07-31T11:05:13.236Z,94393.47
2022-07-31T11:07:42.373Z,94406.78
2022-07-31T11:10:19.343Z,94412.84
2022-07-31T11:12:50.877Z,94396.72
2022-07-31T11:15:20.866Z,94404.13
2022-07-31T11:18:16.655Z,94412.66
2022-07-31T11:20:37.176Z,94389.13
2022-07-31T11:23:07.606Z,94395.88
2022-07-31T11:25:38.576Z,94393.91
2022-07-31T11:28:18.460Z,94400.84
2022-07-31T11:30:54.192Z,94395.44
2022-07-31T11:33:42.598Z,94395.91
2022-07-31T11:36:13.530Z,94389.00
2022-07-31T11:38:42.762Z,94377.56
2022-07-31T11:41:15.173Z,94376.25
2022-07-31T11:43:45.490Z,94387.16
2022-07-31T11:46:13.849Z,94382.75
2022-07-31T11:48:45.325Z,94383.50
2022-07-31T11:51:19.564Z,94380.41
2022-07-31T11:53:51.147Z,94365.59
2022-07-31T11:56:28.381Z,94365.34
2022-07-31T11:58:57.763Z,94355.63
2022-07-31T12:01:29.004Z,94357.50
2022-07-31T12:04:08.562Z,94362.91
2022-07-31T12:06:37.831Z,94361.50
2022-07-31T12:09:06.298Z,94355.81
2022-07-31T12:11:35.830Z,94347.09
2022-07-31T12:14:03.937Z,94350.19
2022-07-31T12:16:41.884Z,94347.50
2022-07-31T12:19:09.828Z,94346.19
2022-07-31T12:21:40.186Z,94329.06
2022-07-31T12:24:11.866Z,94334.28
2022-07-31T12:26:45.276Z,94330.53
2022-07-31T12:29:14.147Z,94336.56
2022-07-31T12:31:47.453Z,94325.16
2022-07-31T12:34:28.987Z,94314.78
2022-07-31T12:37:04.705Z,94324.25
2022-07-31T12:39:47.536Z,94321.78
2022-07-31T12:42:30.383Z,94314.09
2022-07-31T12:45:18.461Z,94312.84
2022-07-31T12:47:51.567Z,94342.63
2022-07-31T12:50:21.214Z,94305.88
2022-07-31T12:52:49.471Z,94309.41
2022-07-31T12:55:17.883Z,94283.91
2022-07-31T12:57:52.218Z,94315.72
2022-07-31T13:00:23.130Z,94315.34
2022-07-31T13:02:51.976Z,94307.56
2022-07-31T13:05:20.436Z,94303.91
2022-07-31T13:07:49.028Z,94295.06
2022-07-31T13:10:23.740Z,94292.84
2022-07-31T13:12:54.809Z,94310.25
2022-07-31T13:15:29.919Z,94311.47
2022-07-31T13:17:58.588Z,94293.59
2022-07-31T13:20:27.201Z,94289.63
2022-07-31T13:22:55.546Z,94295.91
2022-07-31T13:25:23.648Z,94306.66
2022-07-31T13:27:51.850Z,94301.84
2022-07-31T13:30:21.485Z,94298.84
2022-07-31T13:32:51.707Z,94311.69
2022-07-31T13:35:27.594Z,94316.44
2022-07-31T13:37:57.012Z,94300.56
2022-07-31T13:40:39.172Z,94299.50
2022-07-31T13:43:07.339Z,94290.34
2022-07-31T13:45:37.076Z,94297.56
2022-07-31T13:48:09.221Z,94295.44
2022-07-31T13:50:38.335Z,94280.22
2022-07-31T13:53:06.916Z,94296.97
2022-07-31T13:55:34.997Z,94299.72
2022-07-31T13:58:03.147Z,94298.06
2022-07-31T14:00:32.228Z,94287.31
2022-07-31T14:03:01.694Z,94301.22
2022-07-31T14:05:29.804Z,94309.34
2022-07-31T14:08:30.586Z,94307.44
2022-07-31T14:10:56.020Z,94287.28
2022-07-31T14:13:24.551Z,94292.41
2022-07-31T14:15:52.732Z,94294.78
2022-07-31T14:18:23.261Z,94295.31
2022-07-31T14:20:51.854Z,94291.78
2022-07-31T14:23:19.879Z,94279.84
2022-07-31T14:25:47.901Z,94286.34
2022-07-31T14:28:15.886Z,94291.91
2022-07-31T14:30:46.595Z,94287.09
2022-07-31T14:33:17.897Z,94277.16
2022-07-31T14:35:54.510Z,94278.19
2022-07-31T14:38:27.389Z,94279.97
2022-07-31T14:40:55.999Z,94287.81
2022-07-31T14:43:24.287Z,94279.94
2022-07-31T14:45:52.469Z,94288.59
2022-07-31T14:48:21.914Z,94294.22
2022-07-31T14:50:51.379Z,94281.84
2022-07-31T14:53:19.479Z,94270.53
2022-07-31T14:55:47.618Z,94285.59
2022-07-31T14:58:15.609Z,94306.91
2022-07-31T15:00:43.611Z,94288.41
2022-07-31T15:03:11.665Z,94288.66
2022-07-31T15:06:50.871Z,94287.00
2022-07-31T15:08:36.249Z,94282.09
2022-07-31T15:11:04.577Z,94281.03
2022-07-31T15:13:35.993Z,94283.50
2022-07-31T15:16:09.157Z,94280.22
2022-07-31T15:18:37.139Z,94267.81
2022-07-31T15:21:05.470Z,94261.88
2022-07-31T15:23:36.018Z,94261.72
2022-07-31T15:26:04.207Z,94244.88
2022-07-31T15:28:32.498Z,94257.56
2022-07-31T15:31:01.331Z,94253.91
2022-07-31T15:33:29.479Z,94261.88
2022-07-31T15:35:57.416Z,94261.81
2022-07-31T15:38:25.525Z,94260.66
2022-07-31T15:40:54.852Z,94256.31
2022-07-31T15:43:22.860Z,94253.03
2022-07-31T15:45:51.270Z,94265.66
2022-07-31T15:48:19.353Z,94266.88
2022-07-31T15:50:47.488Z,94261.94
2022-07-31T15:53:15.612Z,94265.28
2022-07-31T15:55:43.617Z,94259.50
2022-07-31T15:58:12.992Z,94260.53
2022-07-31T16:00:41.049Z,94250.94
2022-07-31T16:03:09.065Z,94251.50
2022-07-31T16:05:43.479Z,94250.78
2022-07-31T16:08:32.838Z,94255.97
2022-07-31T16:11:03.384Z,94258.72
2022-07-31T16:13:36.326Z,94249.63
2022-07-31T16:16:04.595Z,94267.88
2022-07-31T16:18:32.615Z,94257.19
2022-07-31T16:21:00.562Z,94255.44
2022-07-31T16:23:28.676Z,94253.91
2022-07-31T16:25:56.873Z,94270.66
2022-07-31T16:28:24.844Z,94260.09
2022-07-31T16:30:54.359Z,94259.53
2022-07-31T16:33:22.372Z,94262.34
2022-07-31T16:35:50.420Z,94250.75
2022-07-31T16:38:18.437Z,94255.88
2022-07-31T16:40:48.041Z,94268.94
2022-07-31T16:43:49.859Z,94269.84
2022-07-31T16:46:08.875Z,94260.34
2022-07-31T16:48:36.860Z,94265.97
2022-07-31T16:51:06.499Z,94274.03
2022-07-31T16:54:13.349Z,94281.41
2022-07-31T16:56:22.661Z,94272.78
2022-07-31T16:58:54.349Z,94280.72
2022-07-31T17:02:00.103Z,94291.56
2022-07-31T17:04:13.870Z,94288.19
2022-07-31T17:06:41.908Z,94297.84
2022-07-31T17:09:17.310Z,94289.44
2022-07-31T17:11:47.820Z,94299.25
2022-07-31T17:14:16.258Z,94300.09
2022-07-31T17:16:48.799Z,94295.56
2022-07-31T17:19:41.753Z,94302.44
2022-07-31T17:22:07.444Z,94301.91
2022-07-31T17:24:37.308Z,94303.81
2022-07-31T17:27:08.874Z,94318.50
2022-07-31T17:29:37.455Z,94315.69
2022-07-31T17:32:07.096Z,94303.75
2022-07-31T17:34:35.950Z,94322.34
2022-07-31T17:37:04.601Z,94321.28
2022-07-31T17:39:32.987Z,94332.41
2022-07-31T17:42:01.025Z,94329.94
2022-07-31T17:44:29.216Z,94333.38
2022-07-31T17:46:57.964Z,94322.75
2022-07-31T17:49:33.568Z,94330.69
2022-07-31T17:52:01.653Z,94335.97
2022-07-31T17:54:30.975Z,94329.06
2022-07-31T17:56:59.156Z,94327.97
2022-07-31T17:59:27.339Z,94325.28
2022-07-31T18:01:59.862Z,94335.84
2022-07-31T18:04:28.094Z,94336.88
2022-07-31T18:06:57.650Z,94348.00
2022-07-31T18:09:26.194Z,94340.78
2022-07-31T18:11:55.341Z,94348.47
2022-07-31T18:14:24.561Z,94345.03
2022-07-31T18:16:53.378Z,94348.47
2022-07-31T18:19:22.114Z,94350.53
2022-07-31T18:21:50.324Z,94363.25
2022-07-31T18:24:19.817Z,94357.66
2022-07-31T18:26:48.121Z,94363.75
2022-07-31T18:29:17.036Z,94368.53
2022-07-31T18:31:45.412Z,94363.78
2022-07-31T18:34:14.088Z,94362.22
2022-07-31T18:36:42.225Z,94371.78
2022-07-31T18:39:10.329Z,94375.72
2022-07-31T18:41:39.808Z,94373.34
2022-07-31T18:44:07.793Z,94384.19
2022-07-31T18:46:36.218Z,94382.28
2022-07-31T18:49:07.642Z,94386.44
2022-07-31T18:51:55.734Z,94382.41
2022-07-31T18:54:23.692Z,94396.69
2022-07-31T18:56:53.047Z,94395.59
2022-07-31T18:59:21.176Z,94404.81
2022-07-31T19:01:49.249Z,94401.47
2022-07-31T19:04:17.418Z,94399.25
2022-07-31T19:06:45.815Z,94401.81
2022-07-31T19:09:13.898Z,94400.78
2022-07-31T19:11:50.836Z,94409.63
2022-07-31T19:14:25.168Z,94417.56
2022-07-31T19:16:56.463Z,94414.59
2022-07-31T19:19:25.461Z,94425.91
2022-07-31T19:21:57.059Z,94424.25
2022-07-31T19:24:25.089Z,94415.59
2022-07-31T19:26:53.569Z,94416.78
2022-07-31T19:29:22.015Z,94424.78
2022-07-31T19:31:51.468Z,94425.81
2022-07-31T19:34:19.606Z,94428.16
2022-07-31T19:36:47.607Z,94429.13
2022-07-31T19:39:16.359Z,94428.34
2022-07-31T19:42:12.025Z,94428.53
2022-07-31T19:44:32.921Z,94425.75
2022-07-31T19:47:02.476Z,94425.66
2022-07-31T19:49:34.094Z,94426.09
2022-07-31T19:52:04.726Z,94430.19
2022-07-31T19:54:32.885Z,94436.47
2022-07-31T19:57:01.184Z,94424.94
2022-07-31T19:59:32.046Z,94433.19
2022-07-31T20:02:00.279Z,94437.03
2022-07-31T20:04:29.879Z,94441.94
2022-07-31T20:06:57.946Z,94440.56
2022-07-31T20:09:25.963Z,94449.25
2022-07-31T20:11:53.930Z,94445.78
2022-07-31T20:14:22.147Z,94438.81
2022-07-31T20:16:50.182Z,94442.03
2022-07-31T20:19:18.283Z,94444.66
2022-07-31T20:21:47.633Z,94444.34
2022-07-31T20:24:17.762Z,94439.69
2022-07-31T20:26:45.978Z,94427.84
2022-07-31T20:29:13.993Z,94432.84
2022-07-31T20:31:41.950Z,94434.41
2022-07-31T20:34:09.977Z,94445.47
2022-07-31T20:36:37.994Z,94450.25
2022-07-31T20:39:07.631Z,94436.97
2022-07-31T20:41:36.405Z,94443.75
2022-07-31T20:44:04.522Z,94449.53
2022-07-31T20:46:33.002Z,94433.50
2022-07-31T20:49:01.479Z,94456.16
2022-07-31T20:51:29.615Z,94457.31
2022-07-31T20:53:57.604Z,94460.09
2022-07-31T20:56:27.044Z,94470.06
2022-07-31T20:58:56.016Z,94471.19
2022-07-31T21:01:24.897Z,94452.16
2022-07-31T21:03:54.941Z,94462.34
2022-07-31T21:06:23.044Z,94464.09
2022-07-31T21:08:51.151Z,94471.31
2022-07-31T21:11:20.198Z,94470.41
2022-07-31T21:13:49.622Z,94470.06
2022-07-31T21:16:18.704Z,94470.31
2022-07-31T21:18:48.003Z,94470.47
2022-07-31T21:21:16.022Z,94470.84
2022-07-31T21:23:45.875Z,94460.53
2022-07-31T21:26:15.478Z,94464.38
2022-07-31T21:28:44.027Z,94463.47
2022-07-31T21:31:13.893Z,94463.22
2022-07-31T21:33:42.269Z,94465.53
2022-07-31T21:36:13.577Z,94465.22
2022-07-31T21:38:43.425Z,94462.09
2022-07-31T21:41:11.893Z,94464.81
2022-07-31T21:43:58.284Z,94470.91
2022-07-31T21:46:29.519Z,94463.78
2022-07-31T21:48:58.009Z,94466.09
2022-07-31T21:51:26.560Z,94462.34
2022-07-31T21:53:54.606Z,94466.19
2022-07-31T21:56:22.697Z,94467.88
2022-07-31T21:58:50.792Z,94472.38
2022-07-31T22:01:19.335Z,94467.00
2022-07-31T22:03:48.963Z,94464.09
2022-07-31T22:06:34.424Z,94472.38
2022-07-31T22:09:02.509Z,94471.69
2022-07-31T22:11:31.391Z,94467.09
2022-07-31T22:13:59.396Z,94478.59
2022-07-31T22:16:27.513Z,94471.75
2022-07-31T22:18:58.301Z,94468.13
2022-07-31T22:21:26.641Z,94465.69
2022-07-31T22:23:58.184Z,94466.72
2022-07-31T22:26:26.497Z,94457.56
2022-07-31T22:28:55.219Z,94463.75
2022-07-31T22:31:23.640Z,94460.53
2022-07-31T22:33:51.796Z,94460.53
2022-07-31T22:36:21.758Z,94455.16
2022-07-31T22:38:50.583Z,94454.25
2022-07-31T22:41:18.708Z,94465.16
2022-07-31T22:44:11.588Z,94456.09
2022-07-31T22:46:36.015Z,94448.44
2022-07-31T22:49:06.484Z,94458.06
2022-07-31T22:51:38.589Z,94451.38
2022-07-31T22:54:07.291Z,94453.56
2022-07-31T22:56:35.255Z,94456.44
2022-07-31T22:59:03.652Z,94461.72
2022-07-31T23:01:31.608Z,94456.13
2022-07-31T23:03:59.618Z,94456.69
2022-07-31T23:06:30.893Z,94458.63
2022-07-31T23:09:02.308Z,94458.28
2022-07-31T23:11:30.621Z,94452.88
2022-07-31T23:13:58.883Z,94453.00
2022-07-31T23:16:27.659Z,94454.25
2022-07-31T23:18:56.010Z,94457.94
2022-07-31T23:21:24.407Z,94452.56
2022-07-31T23:23:52.552Z,94453.81
2022-07-31T23:26:24.034Z,94458.78
2022-07-31T23:28:53.783Z,94459.22
2022-07-31T23:31:22.878Z,94461.28
2022-07-31T23:33:51.898Z,94465.63
2022-07-31T23:36:20.413Z,94469.06
2022-07-31T23:38:48.913Z,94465.06
2022-07-31T23:41:37.155Z,94455.78
2022-07-31T23:44:06.475Z,94467.94
2022-07-31T23:46:38.954Z,94462.41
2022-07-31T23:49:08.871Z,94449.81
2022-07-31T23:51:36.884Z,94447.66
2022-07-31T23:54:06.329Z,94467.34
2022-07-31T23:56:34.907Z,94444.56
2022-07-31T23:59:02.893Z,94457.59
